sensor_id;sensor_type;location;lat;lon;timestamp;pressure;altitude;pressure_sealevel;temperature;humidity
81033;BME280;70514;52.478;6.102;2024-03-02T00:00:24;100063.03;;;6.97;85.85
81033;BME280;70514;52.478;6.102;2024-03-02T00:02:52;100068.03;;;7.79;89.54
81033;BME280;70514;52.478;6.102;2024-03-02T00:05:21;100067.63;;;7.32;93.09
81033;BME280;70514;52.478;6.102;2024-03-02T00:07:53;100066.34;;;6.87;86.20
81033;BME280;70514;52.478;6.102;2024-03-02T00:10:38;100063.03;;;6.96;86.74
81033;BME280;70514;52.478;6.102;2024-03-02T00:13:09;100065.41;;;6.80;87.13
81033;BME280;70514;52.478;6.102;2024-03-02T00:18:04;100046.88;;;7.01;87.68
81033;BME280;70514;52.478;6.102;2024-03-02T00:20:32;100041.25;;;7.42;90.20
81033;BME280;70514;52.478;6.102;2024-03-02T00:23:02;100034.94;;;7.05;86.68
81033;BME280;70514;52.478;6.102;2024-03-02T00:25:37;100029.88;;;7.08;92.46
81033;BME280;70514;52.478;6.102;2024-03-02T00:28:11;100028.09;;;6.99;86.76
81033;BME280;70514;52.478;6.102;2024-03-02T00:33:22;100031.69;;;7.18;97.09
81033;BME280;70514;52.478;6.102;2024-03-02T00:35:50;100022.22;;;7.09;87.09
81033;BME280;70514;52.478;6.102;2024-03-02T00:38:18;100024.78;;;7.09;86.47
81033;BME280;70514;52.478;6.102;2024-03-02T00:40:45;100019.66;;;7.09;87.47
81033;BME280;70514;52.478;6.102;2024-03-02T00:43:24;100024.06;;;7.24;87.06
81033;BME280;70514;52.478;6.102;2024-03-02T00:46:01;100013.84;;;7.32;86.42
81033;BME280;70514;52.478;6.102;2024-03-02T00:48:29;100010.28;;;7.11;86.45
81033;BME280;70514;52.478;6.102;2024-03-02T00:50:58;100008.66;;;7.19;86.22
81033;BME280;70514;52.478;6.102;2024-03-02T00:53:26;100020.63;;;7.22;87.94
81033;BME280;70514;52.478;6.102;2024-03-02T00:55:54;100008.84;;;7.41;96.84
81033;BME280;70514;52.478;6.102;2024-03-02T00:58:21;100011.28;;;7.29;87.27
81033;BME280;70514;52.478;6.102;2024-03-02T01:00:49;100027.41;;;7.17;87.04
81033;BME280;70514;52.478;6.102;2024-03-02T01:03:17;100029.13;;;7.18;86.70
81033;BME280;70514;52.478;6.102;2024-03-02T01:05:45;100024.09;;;7.29;86.30
81033;BME280;70514;52.478;6.102;2024-03-02T01:08:13;100016.47;;;7.38;86.31
81033;BME280;70514;52.478;6.102;2024-03-02T01:10:41;100026.78;;;7.44;87.38
81033;BME280;70514;52.478;6.102;2024-03-02T01:13:08;100011.53;;;7.62;85.55
81033;BME280;70514;52.478;6.102;2024-03-02T01:15:36;100026.75;;;7.39;86.29
81033;BME280;70514;52.478;6.102;2024-03-02T01:18:04;100018.16;;;7.34;86.15
81033;BME280;70514;52.478;6.102;2024-03-02T01:20:31;100021.59;;;7.35;87.97
81033;BME280;70514;52.478;6.102;2024-03-02T01:22:59;100036.31;;;7.63;85.81
81033;BME280;70514;52.478;6.102;2024-03-02T01:25:27;100022.53;;;7.49;85.43
81033;BME280;70514;52.478;6.102;2024-03-02T01:27:54;100021.97;;;7.86;91.46
81033;BME280;70514;52.478;6.102;2024-03-02T01:30:22;100027.06;;;7.83;84.85
81033;BME280;70514;52.478;6.102;2024-03-02T01:32:50;100024.47;;;7.79;84.31
81033;BME280;70514;52.478;6.102;2024-03-02T01:35:17;100026.41;;;8.18;84.73
81033;BME280;70514;52.478;6.102;2024-03-02T01:37:45;100016.22;;;8.30;94.24
81033;BME280;70514;52.478;6.102;2024-03-02T01:40:12;100019.41;;;7.89;83.65
81033;BME280;70514;52.478;6.102;2024-03-02T01:42:40;100020.53;;;8.37;87.64
81033;BME280;70514;52.478;6.102;2024-03-02T01:45:08;100031.53;;;8.16;87.69
81033;BME280;70514;52.478;6.102;2024-03-02T01:47:36;100030.69;;;8.20;84.04
81033;BME280;70514;52.478;6.102;2024-03-02T01:50:04;100035.31;;;9.15;92.02
81033;BME280;70514;52.478;6.102;2024-03-02T01:52:31;100050.69;;;8.99;92.22
81033;BME280;70514;52.478;6.102;2024-03-02T01:54:59;100061.78;;;8.88;85.07
81033;BME280;70514;52.478;6.102;2024-03-02T01:57:27;100056.72;;;9.43;89.30
81033;BME280;70514;52.478;6.102;2024-03-02T01:59:55;100052.44;;;9.78;83.11
81033;BME280;70514;52.478;6.102;2024-03-02T02:02:22;100059.28;;;9.76;87.83
81033;BME280;70514;52.478;6.102;2024-03-02T02:04:50;100064.34;;;8.88;80.53
81033;BME280;70514;52.478;6.102;2024-03-02T02:07:18;100066.13;;;9.91;85.01
81033;BME280;70514;52.478;6.102;2024-03-02T02:09:45;100073.53;;;10.96;86.53
81033;BME280;70514;52.478;6.102;2024-03-02T02:12:13;100074.38;;;10.93;79.93
81033;BME280;70514;52.478;6.102;2024-03-02T02:14:46;100075.22;;;11.03;80.51
81033;BME280;70514;52.478;6.102;2024-03-02T02:17:14;100061.66;;;10.64;74.33
81033;BME280;70514;52.478;6.102;2024-03-02T02:19:42;100055.78;;;10.28;88.00
81033;BME280;70514;52.478;6.102;2024-03-02T02:22:10;100058.41;;;10.02;80.18
81033;BME280;70514;52.478;6.102;2024-03-02T02:24:41;100054.09;;;10.05;89.38
81033;BME280;70514;52.478;6.102;2024-03-02T02:27:09;100059.31;;;9.73;86.88
81033;BME280;70514;52.478;6.102;2024-03-02T02:29:42;100050.66;;;10.11;89.36
81033;BME280;70514;52.478;6.102;2024-03-02T02:32:10;100050.66;;;10.29;77.62
81033;BME280;70514;52.478;6.102;2024-03-02T02:34:38;100050.69;;;10.17;83.16
81033;BME280;70514;52.478;6.102;2024-03-02T02:37:05;100043.03;;;9.36;89.67
81033;BME280;70514;52.478;6.102;2024-03-02T02:39:33;100033.56;;;9.89;91.27
81033;BME280;70514;52.478;6.102;2024-03-02T02:42:01;100033.59;;;9.19;91.34
81033;BME280;70514;52.478;6.102;2024-03-02T02:44:30;100028.38;;;8.81;84.53
81033;BME280;70514;52.478;6.102;2024-03-02T02:46:57;100024.13;;;8.89;84.84
81033;BME280;70514;52.478;6.102;2024-03-02T02:49:25;100014.59;;;8.44;90.19
81033;BME280;70514;52.478;6.102;2024-03-02T02:51:52;100013.03;;;9.04;89.88
81033;BME280;70514;52.478;6.102;2024-03-02T02:54:20;100018.75;;;8.25;86.91
81033;BME280;70514;52.478;6.102;2024-03-02T02:56:48;100022.38;;;8.65;85.35
81033;BME280;70514;52.478;6.102;2024-03-02T02:59:15;100032.25;;;7.94;86.79
81033;BME280;70514;52.478;6.102;2024-03-02T03:01:43;100024.66;;;8.10;96.12
81033;BME280;70514;52.478;6.102;2024-03-02T03:04:11;100022.16;;;8.23;85.96
81033;BME280;70514;52.478;6.102;2024-03-02T03:06:39;100035.63;;;7.82;87.02
81033;BME280;70514;52.478;6.102;2024-03-02T03:09:07;100043.41;;;8.00;86.92
81033;BME280;70514;52.478;6.102;2024-03-02T03:11:34;100040.00;;;8.04;86.69
81033;BME280;70514;52.478;6.102;2024-03-02T03:14:02;100041.88;;;8.30;87.33
81033;BME280;70514;52.478;6.102;2024-03-02T03:16:30;100043.69;;;8.44;85.88
81033;BME280;70514;52.478;6.102;2024-03-02T03:18:58;100040.34;;;8.74;97.77
81033;BME280;70514;52.478;6.102;2024-03-02T03:21:26;100041.28;;;8.96;85.06
81033;BME280;70514;52.478;6.102;2024-03-02T03:23:53;100042.84;;;8.53;87.02
81033;BME280;70514;52.478;6.102;2024-03-02T03:26:22;100052.25;;;8.54;96.54
81033;BME280;70514;52.478;6.102;2024-03-02T03:28:50;100052.09;;;8.27;88.31
81033;BME280;70514;52.478;6.102;2024-03-02T03:31:18;100053.00;;;8.30;91.51
81033;BME280;70514;52.478;6.102;2024-03-02T03:33:45;100052.16;;;8.36;91.81
81033;BME280;70514;52.478;6.102;2024-03-02T03:36:13;100047.72;;;8.13;90.55
81033;BME280;70514;52.478;6.102;2024-03-02T03:38:40;100053.22;;;8.88;88.09
81033;BME280;70514;52.478;6.102;2024-03-02T03:41:08;100062.59;;;8.81;87.10
81033;BME280;70514;52.478;6.102;2024-03-02T03:43:35;100058.44;;;9.56;95.06
81033;BME280;70514;52.478;6.102;2024-03-02T03:46:03;100054.97;;;9.07;87.22
81033;BME280;70514;52.478;6.102;2024-03-02T03:48:31;100051.53;;;8.90;87.10
81033;BME280;70514;52.478;6.102;2024-03-02T03:50:58;100056.63;;;8.87;87.78
81033;BME280;70514;52.478;6.102;2024-03-02T03:53:26;100072.00;;;8.76;92.41
81033;BME280;70514;52.478;6.102;2024-03-02T03:55:53;100060.59;;;8.20;89.77
81033;BME280;70514;52.478;6.102;2024-03-02T03:58:21;100055.81;;;9.03;96.99
81033;BME280;70514;52.478;6.102;2024-03-02T04:00:49;100076.22;;;8.59;93.94
81033;BME280;70514;52.478;6.102;2024-03-02T04:03:17;100073.72;;;8.77;92.61
81033;BME280;70514;52.478;6.102;2024-03-02T04:05:44;100075.47;;;8.84;89.17
81033;BME280;70514;52.478;6.102;2024-03-02T04:08:12;100085.84;;;9.45;95.82
81033;BME280;70514;52.478;6.102;2024-03-02T04:10:39;100079.84;;;9.20;90.72
81033;BME280;70514;52.478;6.102;2024-03-02T04:13:09;100090.91;;;9.03;94.78
81033;BME280;70514;52.478;6.102;2024-03-02T04:15:37;100094.31;;;8.94;92.09
81033;BME280;70514;52.478;6.102;2024-03-02T04:18:04;100098.59;;;8.90;97.56
81033;BME280;70514;52.478;6.102;2024-03-02T04:20:32;100091.69;;;8.77;98.49
81033;BME280;70514;52.478;6.102;2024-03-02T04:23:00;100095.50;;;7.98;91.69
81033;BME280;70514;52.478;6.102;2024-03-02T04:25:27;100105.63;;;7.77;98.92
81033;BME280;70514;52.478;6.102;2024-03-02T04:27:55;100090.66;;;8.37;91.22
81033;BME280;70514;52.478;6.102;2024-03-02T04:30:23;100079.66;;;8.67;94.71
81033;BME280;70514;52.478;6.102;2024-03-02T04:32:50;100092.63;;;8.99;94.84
81033;BME280;70514;52.478;6.102;2024-03-02T04:35:18;100094.75;;;8.14;88.63
81033;BME280;70514;52.478;6.102;2024-03-02T04:37:46;100092.38;;;8.34;98.18
81033;BME280;70514;52.478;6.102;2024-03-02T04:40:13;100101.09;;;8.81;95.05
81033;BME280;70514;52.478;6.102;2024-03-02T04:42:41;100103.50;;;7.32;92.71
81033;BME280;70514;52.478;6.102;2024-03-02T04:45:09;100116.75;;;6.96;96.10
81033;BME280;70514;52.478;6.102;2024-03-02T04:47:36;100122.84;;;7.96;100.00
81033;BME280;70514;52.478;6.102;2024-03-02T04:50:04;100114.47;;;8.24;97.08
81033;BME280;70514;52.478;6.102;2024-03-02T04:52:32;100125.34;;;7.87;91.51
81033;BME280;70514;52.478;6.102;2024-03-02T04:54:59;100128.47;;;7.54;100.00
81033;BME280;70514;52.478;6.102;2024-03-02T04:57:46;100130.59;;;8.05;97.45
81033;BME280;70514;52.478;6.102;2024-03-02T05:00:15;100124.25;;;8.87;98.55
81033;BME280;70514;52.478;6.102;2024-03-02T05:02:42;100125.78;;;8.55;100.00
81033;BME280;70514;52.478;6.102;2024-03-02T05:05:10;100118.38;;;9.29;96.40
81033;BME280;70514;52.478;6.102;2024-03-02T05:07:38;100127.84;;;10.08;93.20
81033;BME280;70514;52.478;6.102;2024-03-02T05:10:05;100132.50;;;8.30;86.36
81033;BME280;70514;52.478;6.102;2024-03-02T05:12:33;100147.75;;;8.12;92.31
81033;BME280;70514;52.478;6.102;2024-03-02T05:15:11;100147.56;;;7.89;99.45
81033;BME280;70514;52.478;6.102;2024-03-02T05:17:39;100133.56;;;8.64;99.73
81033;BME280;70514;52.478;6.102;2024-03-02T05:20:07;100146.22;;;8.37;98.66
81033;BME280;70514;52.478;6.102;2024-03-02T05:22:36;100142.81;;;8.33;97.67
81033;BME280;70514;52.478;6.102;2024-03-02T05:25:04;100145.41;;;8.41;93.00
81033;BME280;70514;52.478;6.102;2024-03-02T05:27:32;100150.16;;;7.94;98.67
81033;BME280;70514;52.478;6.102;2024-03-02T05:30:00;100151.13;;;7.16;100.00
81033;BME280;70514;52.478;6.102;2024-03-02T05:32:28;100152.53;;;7.69;100.00
81033;BME280;70514;52.478;6.102;2024-03-02T05:34:56;100158.38;;;7.58;100.00
81033;BME280;70514;52.478;6.102;2024-03-02T05:37:24;100155.97;;;7.72;93.70
81033;BME280;70514;52.478;6.102;2024-03-02T05:39:51;100162.19;;;6.46;98.53
81033;BME280;70514;52.478;6.102;2024-03-02T05:42:19;100155.44;;;7.21;100.00
81033;BME280;70514;52.478;6.102;2024-03-02T05:44:47;100159.22;;;7.57;100.00
81033;BME280;70514;52.478;6.102;2024-03-02T05:47:15;100164.25;;;7.45;96.28
81033;BME280;70514;52.478;6.102;2024-03-02T05:49:42;100151.72;;;6.95;100.00
81033;BME280;70514;52.478;6.102;2024-03-02T05:52:10;100159.59;;;7.96;100.00
81033;BME280;70514;52.478;6.102;2024-03-02T05:54:39;100156.91;;;7.81;100.00
81033;BME280;70514;52.478;6.102;2024-03-02T05:57:06;100158.63;;;7.82;100.00
81033;BME280;70514;52.478;6.102;2024-03-02T05:59:44;100149.63;;;6.64;99.40
81033;BME280;70514;52.478;6.102;2024-03-02T06:02:12;100161.66;;;6.71;98.55
81033;BME280;70514;52.478;6.102;2024-03-02T06:04:39;100160.63;;;6.57;100.00
81033;BME280;70514;52.478;6.102;2024-03-02T06:07:07;100167.53;;;6.05;100.00
81033;BME280;70514;52.478;6.102;2024-03-02T06:09:35;100171.34;;;5.79;100.00
81033;BME280;70514;52.478;6.102;2024-03-02T06:12:02;100176.53;;;6.98;100.00
81033;BME280;70514;52.478;6.102;2024-03-02T06:14:31;100170.88;;;6.58;100.00
81033;BME280;70514;52.478;6.102;2024-03-02T06:16:59;100177.16;;;5.72;100.00
81033;BME280;70514;52.478;6.102;2024-03-02T06:19:26;100176.50;;;5.35;100.00
81033;BME280;70514;52.478;6.102;2024-03-02T06:21:55;100182.28;;;5.72;100.00
81033;BME280;70514;52.478;6.102;2024-03-02T06:24:22;100198.38;;;6.17;100.00
81033;BME280;70514;52.478;6.102;2024-03-02T06:26:50;100187.69;;;5.87;100.00
81033;BME280;70514;52.478;6.102;2024-03-02T06:29:18;100197.28;;;6.00;100.00
81033;BME280;70514;52.478;6.102;2024-03-02T06:31:45;100197.63;;;6.21;100.00
81033;BME280;70514;52.478;6.102;2024-03-02T06:34:13;100198.56;;;6.26;100.00
81033;BME280;70514;52.478;6.102;2024-03-02T06:36:41;100200.78;;;6.05;100.00
81033;BME280;70514;52.478;6.102;2024-03-02T06:39:10;100202.84;;;5.34;100.00
81033;BME280;70514;52.478;6.102;2024-03-02T06:41:37;100203.72;;;5.33;100.00
81033;BME280;70514;52.478;6.102;2024-03-02T06:44:05;100214.84;;;5.37;100.00
81033;BME280;70514;52.478;6.102;2024-03-02T06:46:33;100215.63;;;5.34;100.00
81033;BME280;70514;52.478;6.102;2024-03-02T06:49:01;100213.97;;;6.32;100.00
81033;BME280;70514;52.478;6.102;2024-03-02T06:51:30;100214.97;;;7.02;100.00
81033;BME280;70514;52.478;6.102;2024-03-02T06:53:58;100216.03;;;7.21;100.00
81033;BME280;70514;52.478;6.102;2024-03-02T06:56:25;100213.34;;;7.10;100.00
81033;BME280;70514;52.478;6.102;2024-03-02T06:58:53;100213.81;;;6.80;99.50
81033;BME280;70514;52.478;6.102;2024-03-02T07:01:21;100208.31;;;7.16;100.00
81033;BME280;70514;52.478;6.102;2024-03-02T07:03:52;100216.06;;;8.08;100.00
81033;BME280;70514;52.478;6.102;2024-03-02T07:06:19;100223.81;;;6.62;98.46
81033;BME280;70514;52.478;6.102;2024-03-02T07:08:47;100224.38;;;6.45;100.00
81033;BME280;70514;52.478;6.102;2024-03-02T07:11:15;100222.50;;;5.83;100.00
81033;BME280;70514;52.478;6.102;2024-03-02T07:13:42;100219.47;;;5.57;100.00
81033;BME280;70514;52.478;6.102;2024-03-02T07:16:10;100219.78;;;6.21;100.00
81033;BME280;70514;52.478;6.102;2024-03-02T07:18:55;100219.88;;;5.79;100.00
81033;BME280;70514;52.478;6.102;2024-03-02T07:21:24;100227.81;;;6.45;100.00
81033;BME280;70514;52.478;6.102;2024-03-02T07:23:52;100225.56;;;7.30;100.00
81033;BME280;70514;52.478;6.102;2024-03-02T07:26:19;100216.03;;;7.21;97.87
81033;BME280;70514;52.478;6.102;2024-03-02T07:28:50;100229.50;;;7.80;100.00
81033;BME280;70514;52.478;6.102;2024-03-02T07:31:18;100227.72;;;8.74;100.00
81033;BME280;70514;52.478;6.102;2024-03-02T07:33:46;100225.84;;;8.50;92.22
81033;BME280;70514;52.478;6.102;2024-03-02T07:36:14;100227.94;;;9.20;98.34
81033;BME280;70514;52.478;6.102;2024-03-02T07:38:42;100231.50;;;9.51;95.73
81033;BME280;70514;52.478;6.102;2024-03-02T07:41:12;100240.88;;;9.44;93.90
81033;BME280;70514;52.478;6.102;2024-03-02T07:43:40;100246.88;;;9.40;90.29
81033;BME280;70514;52.478;6.102;2024-03-02T07:46:07;100253.59;;;7.97;92.56
81033;BME280;70514;52.478;6.102;2024-03-02T07:48:35;100264.81;;;8.10;92.42
81033;BME280;70514;52.478;6.102;2024-03-02T07:51:03;100265.31;;;7.74;91.41
81033;BME280;70514;52.478;6.102;2024-03-02T07:53:31;100270.63;;;7.94;90.73
81033;BME280;70514;52.478;6.102;2024-03-02T07:55:58;100270.69;;;7.98;91.67
81033;BME280;70514;52.478;6.102;2024-03-02T07:58:30;100273.75;;;8.48;98.32
81033;BME280;70514;52.478;6.102;2024-03-02T08:00:58;100278.22;;;8.78;88.22
81033;BME280;70514;52.478;6.102;2024-03-02T08:03:29;100266.41;;;9.05;94.29
81033;BME280;70514;52.478;6.102;2024-03-02T08:05:56;100268.69;;;8.62;87.86
81033;BME280;70514;52.478;6.102;2024-03-02T08:08:24;100279.81;;;8.61;87.48
81033;BME280;70514;52.478;6.102;2024-03-02T08:10:52;100273.38;;;9.27;92.44
81033;BME280;70514;52.478;6.102;2024-03-02T08:13:19;100283.25;;;8.63;92.29
81033;BME280;70514;52.478;6.102;2024-03-02T08:15:47;100282.16;;;8.32;87.56
81033;BME280;70514;52.478;6.102;2024-03-02T08:18:14;100284.03;;;8.56;90.20
81033;BME280;70514;52.478;6.102;2024-03-02T08:20:42;100280.47;;;9.95;92.05
81033;BME280;70514;52.478;6.102;2024-03-02T08:23:10;100286.41;;;9.74;89.42
81033;BME280;70514;52.478;6.102;2024-03-02T08:25:37;100286.50;;;10.27;83.76
81033;BME280;70514;52.478;6.102;2024-03-02T08:28:05;100292.50;;;10.73;87.19
81033;BME280;70514;52.478;6.102;2024-03-02T08:30:33;100284.81;;;10.34;80.35
81033;BME280;70514;52.478;6.102;2024-03-02T08:33:01;100278.78;;;10.85;88.18
81033;BME280;70514;52.478;6.102;2024-03-02T08:35:29;100280.44;;;11.13;86.14
81033;BME280;70514;52.478;6.102;2024-03-02T08:37:56;100270.78;;;11.56;83.63
81033;BME280;70514;52.478;6.102;2024-03-02T08:40:24;100283.78;;;11.30;80.01
81033;BME280;70514;52.478;6.102;2024-03-02T08:42:52;100282.13;;;11.20;80.21
81033;BME280;70514;52.478;6.102;2024-03-02T08:45:19;100270.16;;;11.08;81.25
81033;BME280;70514;52.478;6.102;2024-03-02T08:47:48;100272.59;;;11.45;79.28
81033;BME280;70514;52.478;6.102;2024-03-02T08:50:15;100275.13;;;11.51;79.69
81033;BME280;70514;52.478;6.102;2024-03-02T08:52:43;100264.84;;;11.43;78.61
81033;BME280;70514;52.478;6.102;2024-03-02T08:55:11;100273.47;;;11.39;79.98
81033;BME280;70514;52.478;6.102;2024-03-02T08:57:39;100271.63;;;11.63;75.63
81033;BME280;70514;52.478;6.102;2024-03-02T09:00:07;100272.22;;;12.15;78.76
81033;BME280;70514;52.478;6.102;2024-03-02T09:02:35;100278.09;;;12.35;77.56
81033;BME280;70514;52.478;6.102;2024-03-02T09:05:02;100278.03;;;12.40;76.95
81033;BME280;70514;52.478;6.102;2024-03-02T09:07:30;100283.81;;;12.70;74.06
81033;BME280;70514;52.478;6.102;2024-03-02T09:09:59;100284.56;;;12.83;75.21
81033;BME280;70514;52.478;6.102;2024-03-02T09:12:27;100280.16;;;12.94;74.81
81033;BME280;70514;52.478;6.102;2024-03-02T09:14:54;100292.41;;;12.69;68.75
81033;BME280;70514;52.478;6.102;2024-03-02T09:17:22;100286.19;;;12.95;72.50
81033;BME280;70514;52.478;6.102;2024-03-02T09:19:50;100286.19;;;12.90;70.29
81033;BME280;70514;52.478;6.102;2024-03-02T09:22:20;100287.75;;;13.08;72.71
81033;BME280;70514;52.478;6.102;2024-03-02T09:24:47;100297.03;;;13.29;71.25
81033;BME280;70514;52.478;6.102;2024-03-02T09:27:15;100288.41;;;13.30;71.84
81033;BME280;70514;52.478;6.102;2024-03-02T09:29:43;100285.13;;;13.14;72.37
81033;BME280;70514;52.478;6.102;2024-03-02T09:32:12;100280.81;;;13.13;72.96
81033;BME280;70514;52.478;6.102;2024-03-02T09:34:40;100287.72;;;13.12;69.73
81033;BME280;70514;52.478;6.102;2024-03-02T09:37:08;100280.81;;;13.14;68.41
81033;BME280;70514;52.478;6.102;2024-03-02T09:39:36;100272.94;;;13.25;72.08
81033;BME280;70514;52.478;6.102;2024-03-02T09:42:03;100282.63;;;13.03;70.86
81033;BME280;70514;52.478;6.102;2024-03-02T09:44:31;100277.09;;;13.38;71.64
81033;BME280;70514;52.478;6.102;2024-03-02T09:47:00;100276.75;;;13.67;71.56
81033;BME280;70514;52.478;6.102;2024-03-02T09:49:28;100289.19;;;14.02;70.34
81033;BME280;70514;52.478;6.102;2024-03-02T09:51:55;100280.56;;;14.00;68.38
81033;BME280;70514;52.478;6.102;2024-03-02T09:54:23;100284.03;;;14.00;68.82
81033;BME280;70514;52.478;6.102;2024-03-02T09:56:51;100280.16;;;14.27;67.94
81033;BME280;70514;52.478;6.102;2024-03-02T09:59:19;100289.41;;;13.85;67.67
81033;BME280;70514;52.478;6.102;2024-03-02T10:02:00;100295.69;;;14.29;62.47
81033;BME280;70514;52.478;6.102;2024-03-02T10:04:29;100287.16;;;14.21;67.77
81033;BME280;70514;52.478;6.102;2024-03-02T10:07:12;100289.22;;;14.57;59.87
81033;BME280;70514;52.478;6.102;2024-03-02T10:09:49;100294.19;;;14.71;62.29
81033;BME280;70514;52.478;6.102;2024-03-02T10:12:17;100294.63;;;14.42;65.49
81033;BME280;70514;52.478;6.102;2024-03-02T10:14:45;100288.66;;;14.40;64.23
81033;BME280;70514;52.478;6.102;2024-03-02T10:17:13;100288.31;;;14.03;61.19
81033;BME280;70514;52.478;6.102;2024-03-02T10:19:43;100284.28;;;14.42;67.09
81033;BME280;70514;52.478;6.102;2024-03-02T10:22:10;100294.66;;;14.40;67.03
81033;BME280;70514;52.478;6.102;2024-03-02T10:24:39;100302.13;;;14.03;58.08
81033;BME280;70514;52.478;6.102;2024-03-02T10:27:15;100292.91;;;14.42;62.56
81033;BME280;70514;52.478;6.102;2024-03-02T10:29:45;100292.84;;;14.47;55.23
81033;BME280;70514;52.478;6.102;2024-03-02T10:32:13;100290.75;;;14.12;55.11
81033;BME280;70514;52.478;6.102;2024-03-02T10:34:40;100289.72;;;14.77;62.09
81033;BME280;70514;52.478;6.102;2024-03-02T10:37:08;100295.88;;;14.72;65.93
81033;BME280;70514;52.478;6.102;2024-03-02T10:39:36;100302.06;;;14.63;55.06
81033;BME280;70514;52.478;6.102;2024-03-02T10:42:04;100292.84;;;14.47;64.93
81033;BME280;70514;52.478;6.102;2024-03-02T10:44:33;100281.84;;;13.72;60.09
81033;BME280;70514;52.478;6.102;2024-03-02T10:47:01;100287.88;;;13.72;58.21
81033;BME280;70514;52.478;6.102;2024-03-02T10:49:31;100289.22;;;13.32;56.37
81033;BME280;70514;52.478;6.102;2024-03-02T10:51:59;100286.38;;;14.16;56.76
81033;BME280;70514;52.478;6.102;2024-03-02T10:54:27;100281.31;;;14.65;65.94
81033;BME280;70514;52.478;6.102;2024-03-02T10:57:04;100278.16;;;14.48;64.81
81033;BME280;70514;52.478;6.102;2024-03-02T10:59:33;100285.22;;;14.87;65.25
81033;BME280;70514;52.478;6.102;2024-03-02T11:02:01;100285.84;;;14.52;61.03
81033;BME280;70514;52.478;6.102;2024-03-02T11:04:32;100286.69;;;14.53;55.55
81033;BME280;70514;52.478;6.102;2024-03-02T11:09:33;100288.06;;;14.75;56.09
81033;BME280;70514;52.478;6.102;2024-03-02T11:14:32;100271.19;;;14.99;61.94
81033;BME280;70514;52.478;6.102;2024-03-02T11:17:01;100276.75;;;15.25;57.48
81033;BME280;70514;52.478;6.102;2024-03-02T11:19:30;100272.78;;;15.06;51.84
81033;BME280;70514;52.478;6.102;2024-03-02T11:21:59;100268.41;;;15.08;63.22
81033;BME280;70514;52.478;6.102;2024-03-02T11:27:05;100262.59;;;15.40;63.24
81033;BME280;70514;52.478;6.102;2024-03-02T11:32:13;100271.66;;;15.63;60.79
81033;BME280;70514;52.478;6.102;2024-03-02T11:34:54;100276.00;;;15.63;57.89
81033;BME280;70514;52.478;6.102;2024-03-02T11:37:23;100267.91;;;15.77;59.87
81033;BME280;70514;52.478;6.102;2024-03-02T11:39:52;100274.09;;;15.71;57.05
81033;BME280;70514;52.478;6.102;2024-03-02T11:42:19;100267.09;;;15.33;54.07
81033;BME280;70514;52.478;6.102;2024-03-02T11:44:47;100269.69;;;15.33;56.15
81033;BME280;70514;52.478;6.102;2024-03-02T11:47:16;100261.28;;;14.74;53.38
81033;BME280;70514;52.478;6.102;2024-03-02T11:49:45;100261.09;;;14.83;50.64
81033;BME280;70514;52.478;6.102;2024-03-02T11:52:13;100245.97;;;15.50;62.37
81033;BME280;70514;52.478;6.102;2024-03-02T11:54:43;100265.06;;;15.03;51.23
81033;BME280;70514;52.478;6.102;2024-03-02T11:57:14;100247.94;;;14.94;58.95
81033;BME280;70514;52.478;6.102;2024-03-02T11:59:43;100249.97;;;14.77;64.16
81033;BME280;70514;52.478;6.102;2024-03-02T12:02:15;100240.31;;;14.37;61.45
81033;BME280;70514;52.478;6.102;2024-03-02T12:04:44;100249.47;;;14.58;60.84
81033;BME280;70514;52.478;6.102;2024-03-02T12:07:12;100245.81;;;14.71;64.72
81033;BME280;70514;52.478;6.102;2024-03-02T12:09:40;100258.09;;;14.60;64.35
81033;BME280;70514;52.478;6.102;2024-03-02T12:12:08;100248.56;;;14.61;61.97
81033;BME280;70514;52.478;6.102;2024-03-02T12:14:37;100250.41;;;14.56;64.95
81033;BME280;70514;52.478;6.102;2024-03-02T12:17:05;100245.91;;;14.65;53.91
81033;BME280;70514;52.478;6.102;2024-03-02T12:19:33;100235.47;;;14.68;63.50
81033;BME280;70514;52.478;6.102;2024-03-02T12:22:01;100234.97;;;14.96;61.92
81033;BME280;70514;52.478;6.102;2024-03-02T12:24:29;100244.03;;;15.18;63.83
81033;BME280;70514;52.478;6.102;2024-03-02T12:26:57;100235.47;;;14.67;63.67
81033;BME280;70514;52.478;6.102;2024-03-02T12:29:25;100236.31;;;14.15;60.71
81033;BME280;70514;52.478;6.102;2024-03-02T12:31:53;100237.00;;;13.71;63.06
81033;BME280;70514;52.478;6.102;2024-03-02T12:34:21;100220.19;;;13.40;58.81
81033;BME280;70514;52.478;6.102;2024-03-02T12:36:49;100219.44;;;13.91;56.62
81033;BME280;70514;52.478;6.102;2024-03-02T12:39:20;100223.13;;;14.30;59.95
81033;BME280;70514;52.478;6.102;2024-03-02T12:41:49;100226.59;;;13.76;55.78
81033;BME280;70514;52.478;6.102;2024-03-02T12:44:21;100229.72;;;13.96;67.59
81033;BME280;70514;52.478;6.102;2024-03-02T12:46:49;100230.47;;;14.58;63.65
81033;BME280;70514;52.478;6.102;2024-03-02T12:49:16;100231.72;;;14.84;60.56
81033;BME280;70514;52.478;6.102;2024-03-02T12:51:44;100232.88;;;14.68;53.91
81033;BME280;70514;52.478;6.102;2024-03-02T12:54:14;100219.63;;;13.79;57.09
81033;BME280;70514;52.478;6.102;2024-03-02T12:56:42;100225.50;;;13.92;67.66
81033;BME280;70514;52.478;6.102;2024-03-02T12:59:18;100229.47;;;13.53;59.64
81033;BME280;70514;52.478;6.102;2024-03-02T13:01:50;100227.31;;;13.85;59.63
81033;BME280;70514;52.478;6.102;2024-03-02T13:04:21;100217.81;;;13.23;58.92
81033;BME280;70514;52.478;6.102;2024-03-02T13:06:49;100223.91;;;13.17;62.10
81033;BME280;70514;52.478;6.102;2024-03-02T13:09:17;100217.72;;;13.31;69.39
81033;BME280;70514;52.478;6.102;2024-03-02T13:11:45;100221.75;;;12.78;65.55
81033;BME280;70514;52.478;6.102;2024-03-02T13:14:12;100220.94;;;12.73;61.76
81033;BME280;70514;52.478;6.102;2024-03-02T13:16:44;100221.91;;;13.38;71.35